Blue Water Estates, Kentucky
Current Conditions -  °F | °C
As of 3:58 AM on Monday 20 Oct 2014 (Local Time) from KHOP Reporting Station
Broken Clouds Broken Clouds  
Wind Chill: 47°   Ceiling: 14000
Heat Index: 47°   Visibility: 7mi
Dew Point: 47°   Wind: 1mph
Humidity: 99%   Direction: 220°SW
Pressure: 30.06"   Gusts: NA
Location:  36.8031°N, 87.8159°W
Report Text: KHOP 200858Z AUTO 22001KT 7SM BKN140 08/08 A3006 RMK AO2 SLP180 T00820081 55005
Loading
Personal Weather Stations






























Interactive Weather Map
Tropical Storm Tracking
New forecast layout! Learn more

10-Day Weather Forecast

Advertisements
Track Severe Weather on mobile